sensor_id;sensor_type;location;lat;lon;timestamp;pressure;altitude;pressure_sealevel;temperature;humidity
56825;BME280;42705;50.326;18.772;2023-03-16T00:04:15;98729.59;;;-0.50;65.02
56825;BME280;42705;50.326;18.772;2023-03-16T00:09:37;98725.90;;;-0.48;65.37
56825;BME280;42705;50.326;18.772;2023-03-16T00:15:01;98727.14;;;-0.49;65.62
56825;BME280;42705;50.326;18.772;2023-03-16T00:20:23;98730.61;;;-0.50;65.83
56825;BME280;42705;50.326;18.772;2023-03-16T00:25:45;98731.86;;;-0.47;65.84
56825;BME280;42705;50.326;18.772;2023-03-16T00:31:09;98730.42;;;-0.45;65.94
56825;BME280;42705;50.326;18.772;2023-03-16T00:36:32;98733.08;;;-0.52;66.03
56825;BME280;42705;50.326;18.772;2023-03-16T00:41:54;98740.17;;;-0.57;66.05
56825;BME280;42705;50.326;18.772;2023-03-16T00:47:19;98736.55;;;-0.57;66.42
56825;BME280;42705;50.326;18.772;2023-03-16T00:52:42;98741.27;;;-0.54;66.84
56825;BME280;42705;50.326;18.772;2023-03-16T00:58:04;98740.70;;;-0.58;66.78
56825;BME280;42705;50.326;18.772;2023-03-16T01:03:26;98740.80;;;-0.60;66.86
56825;BME280;42705;50.326;18.772;2023-03-16T01:08:48;98739.12;;;-0.56;67.03
56825;BME280;42705;50.326;18.772;2023-03-16T01:14:10;98746.95;;;-0.55;66.95
56825;BME280;42705;50.326;18.772;2023-03-16T01:19:36;98747.51;;;-0.61;67.11
56825;BME280;42705;50.326;18.772;2023-03-16T01:24:58;98753.33;;;-0.69;67.35
56825;BME280;42705;50.326;18.772;2023-03-16T01:30:20;98754.28;;;-0.71;67.62
56825;BME280;42705;50.326;18.772;2023-03-16T01:35:51;98762.84;;;-0.75;67.46
56825;BME280;42705;50.326;18.772;2023-03-16T01:41:14;98763.22;;;-0.85;67.56
56825;BME280;42705;50.326;18.772;2023-03-16T01:46:36;98759.91;;;-0.92;67.96
56825;BME280;42705;50.326;18.772;2023-03-16T01:52:06;98763.25;;;-0.94;68.13
56825;BME280;42705;50.326;18.772;2023-03-16T01:57:36;98758.84;;;-0.96;68.48
56825;BME280;42705;50.326;18.772;2023-03-16T02:03:19;98760.86;;;-0.99;68.55
56825;BME280;42705;50.326;18.772;2023-03-16T02:08:50;98764.40;;;-1.02;68.66
56825;BME280;42705;50.326;18.772;2023-03-16T02:14:16;98773.27;;;-1.01;69.10
56825;BME280;42705;50.326;18.772;2023-03-16T02:25:17;98787.67;;;-1.05;69.02
56825;BME280;42705;50.326;18.772;2023-03-16T02:30:39;98795.68;;;-1.08;69.11
56825;BME280;42705;50.326;18.772;2023-03-16T02:36:03;98805.61;;;-1.13;69.33
56825;BME280;42705;50.326;18.772;2023-03-16T02:41:25;98812.05;;;-1.15;69.24
56825;BME280;42705;50.326;18.772;2023-03-16T02:46:53;98820.39;;;-1.14;69.61
56825;BME280;42705;50.326;18.772;2023-03-16T02:52:16;98825.33;;;-1.13;69.89
56825;BME280;42705;50.326;18.772;2023-03-16T02:57:38;98830.17;;;-1.14;69.54
56825;BME280;42705;50.326;18.772;2023-03-16T03:03:05;98837.17;;;-1.18;69.80
56825;BME280;42705;50.326;18.772;2023-03-16T03:08:29;98842.41;;;-1.16;69.82
56825;BME280;42705;50.326;18.772;2023-03-16T03:13:54;98844.02;;;-1.13;69.91
56825;BME280;42705;50.326;18.772;2023-03-16T03:19:17;98849.73;;;-1.14;70.05
56825;BME280;42705;50.326;18.772;2023-03-16T03:24:39;98860.67;;;-1.23;69.74
56825;BME280;42705;50.326;18.772;2023-03-16T03:30:03;98864.68;;;-1.30;70.06
56825;BME280;42705;50.326;18.772;2023-03-16T03:35:26;98870.31;;;-1.34;70.19
56825;BME280;42705;50.326;18.772;2023-03-16T03:40:50;98875.31;;;-1.45;70.40
56825;BME280;42705;50.326;18.772;2023-03-16T03:46:12;98877.02;;;-1.50;70.27
56825;BME280;42705;50.326;18.772;2023-03-16T03:51:34;98882.54;;;-1.51;70.64
56825;BME280;42705;50.326;18.772;2023-03-16T03:57:00;98889.21;;;-1.55;70.77
56825;BME280;42705;50.326;18.772;2023-03-16T04:02:22;98888.33;;;-1.55;70.93
56825;BME280;42705;50.326;18.772;2023-03-16T04:07:49;98891.73;;;-1.54;70.90
56825;BME280;42705;50.326;18.772;2023-03-16T04:13:16;98885.21;;;-1.54;71.15
56825;BME280;42705;50.326;18.772;2023-03-16T04:18:38;98893.23;;;-1.47;71.26
56825;BME280;42705;50.326;18.772;2023-03-16T04:24:04;98887.95;;;-1.38;71.26
56825;BME280;42705;50.326;18.772;2023-03-16T04:29:29;98888.73;;;-1.37;71.27
56825;BME280;42705;50.326;18.772;2023-03-16T04:34:52;98894.02;;;-1.36;71.22
56825;BME280;42705;50.326;18.772;2023-03-16T04:40:18;98895.33;;;-1.34;71.18
56825;BME280;42705;50.326;18.772;2023-03-16T04:45:47;98903.20;;;-1.38;71.17
56825;BME280;42705;50.326;18.772;2023-03-16T04:51:09;98902.08;;;-1.46;71.23
56825;BME280;42705;50.326;18.772;2023-03-16T04:56:34;98905.27;;;-1.49;71.27
56825;BME280;42705;50.326;18.772;2023-03-16T05:02:00;98922.77;;;-1.49;71.24
56825;BME280;42705;50.326;18.772;2023-03-16T05:07:22;98933.00;;;-1.58;71.09
56825;BME280;42705;50.326;18.772;2023-03-16T05:12:47;98938.33;;;-1.74;71.02
56825;BME280;42705;50.326;18.772;2023-03-16T05:18:10;98938.50;;;-1.75;71.40
56825;BME280;42705;50.326;18.772;2023-03-16T05:23:33;98945.33;;;-1.74;71.45
56825;BME280;42705;50.326;18.772;2023-03-16T05:28:58;98950.16;;;-1.75;71.62
56825;BME280;42705;50.326;18.772;2023-03-16T05:34:22;98950.23;;;-1.67;71.85
56825;BME280;42705;50.326;18.772;2023-03-16T05:39:45;98958.71;;;-1.59;71.83
56825;BME280;42705;50.326;18.772;2023-03-16T05:45:09;98964.86;;;-1.58;71.62
56825;BME280;42705;50.326;18.772;2023-03-16T05:50:40;98969.58;;;-1.56;71.62
56825;BME280;42705;50.326;18.772;2023-03-16T05:56:04;98973.17;;;-1.51;71.83
56825;BME280;42705;50.326;18.772;2023-03-16T06:01:28;98980.05;;;-1.51;71.60
56825;BME280;42705;50.326;18.772;2023-03-16T06:06:50;98985.02;;;-1.46;71.77
56825;BME280;42705;50.326;18.772;2023-03-16T06:12:16;98995.02;;;-1.42;71.50
56825;BME280;42705;50.326;18.772;2023-03-16T06:17:39;98997.30;;;-1.39;71.78
56825;BME280;42705;50.326;18.772;2023-03-16T06:23:04;99004.54;;;-1.30;71.77
56825;BME280;42705;50.326;18.772;2023-03-16T06:28:26;99006.87;;;-1.13;71.76
56825;BME280;42705;50.326;18.772;2023-03-16T06:33:49;99016.96;;;-0.92;71.81
56825;BME280;42705;50.326;18.772;2023-03-16T06:39:11;99012.84;;;-0.72;72.12
56825;BME280;42705;50.326;18.772;2023-03-16T06:44:37;99020.89;;;-0.62;72.05
56825;BME280;42705;50.326;18.772;2023-03-16T06:50:05;99027.23;;;-0.62;71.71
56825;BME280;42705;50.326;18.772;2023-03-16T06:55:27;99035.01;;;-0.68;71.55
56825;BME280;42705;50.326;18.772;2023-03-16T07:00:49;99037.48;;;-0.65;71.48
56825;BME280;42705;50.326;18.772;2023-03-16T07:06:12;99040.41;;;-0.56;71.63
56825;BME280;42705;50.326;18.772;2023-03-16T07:11:35;99048.08;;;-0.40;71.13
56825;BME280;42705;50.326;18.772;2023-03-16T07:17:00;99053.52;;;-0.20;71.17
56825;BME280;42705;50.326;18.772;2023-03-16T07:22:25;99047.80;;;0.00;71.26
56825;BME280;42705;50.326;18.772;2023-03-16T07:27:49;99053.96;;;0.10;70.94
56825;BME280;42705;50.326;18.772;2023-03-16T07:33:18;99053.20;;;0.12;70.86
56825;BME280;42705;50.326;18.772;2023-03-16T07:38:42;99053.30;;;0.18;70.71
56825;BME280;42705;50.326;18.772;2023-03-16T07:44:05;99057.65;;;0.30;70.78
56825;BME280;42705;50.326;18.772;2023-03-16T07:49:29;99060.27;;;0.34;70.62
56825;BME280;42705;50.326;18.772;2023-03-16T07:54:54;99067.86;;;0.41;70.52
56825;BME280;42705;50.326;18.772;2023-03-16T08:00:22;99068.88;;;0.55;70.57
56825;BME280;42705;50.326;18.772;2023-03-16T08:05:48;99069.13;;;0.75;70.47
56825;BME280;42705;50.326;18.772;2023-03-16T08:11:12;99073.23;;;0.92;70.73
56825;BME280;42705;50.326;18.772;2023-03-16T08:16:41;99078.10;;;1.07;70.51
56825;BME280;42705;50.326;18.772;2023-03-16T08:22:06;99084.66;;;1.15;70.05
56825;BME280;42705;50.326;18.772;2023-03-16T08:27:48;99082.77;;;1.31;70.05
56825;BME280;42705;50.326;18.772;2023-03-16T08:33:11;99082.45;;;1.51;69.99
56825;BME280;42705;50.326;18.772;2023-03-16T08:38:37;99082.51;;;1.77;69.34
56825;BME280;42705;50.326;18.772;2023-03-16T08:44:04;99084.17;;;1.94;69.20
56825;BME280;42705;50.326;18.772;2023-03-16T08:49:33;99086.24;;;2.05;68.81
56825;BME280;42705;50.326;18.772;2023-03-16T08:55:08;99094.41;;;2.15;68.62
56825;BME280;42705;50.326;18.772;2023-03-16T09:00:31;99099.66;;;2.36;67.97
56825;BME280;42705;50.326;18.772;2023-03-16T09:06:02;99099.10;;;2.66;67.77
56825;BME280;42705;50.326;18.772;2023-03-16T09:11:26;99103.29;;;2.80;67.13
56825;BME280;42705;50.326;18.772;2023-03-16T09:16:52;99102.05;;;2.91;66.85
56825;BME280;42705;50.326;18.772;2023-03-16T09:22:14;99106.49;;;3.02;66.31
56825;BME280;42705;50.326;18.772;2023-03-16T09:27:41;99107.91;;;3.12;66.01
56825;BME280;42705;50.326;18.772;2023-03-16T09:33:04;99111.48;;;3.31;65.63
56825;BME280;42705;50.326;18.772;2023-03-16T09:38:27;99114.89;;;3.45;65.00
56825;BME280;42705;50.326;18.772;2023-03-16T09:43:57;99110.33;;;3.51;64.72
56825;BME280;42705;50.326;18.772;2023-03-16T09:49:26;99110.38;;;3.66;64.43
56825;BME280;42705;50.326;18.772;2023-03-16T10:06:16;99121.27;;;4.35;62.78
56825;BME280;42705;50.326;18.772;2023-03-16T10:11:46;99129.69;;;4.49;62.34
56825;BME280;42705;50.326;18.772;2023-03-16T10:17:20;99123.77;;;4.59;61.50
56825;BME280;42705;50.326;18.772;2023-03-16T10:22:48;99131.05;;;4.55;60.98
56825;BME280;42705;50.326;18.772;2023-03-16T10:28:19;99129.88;;;4.58;60.60
56825;BME280;42705;50.326;18.772;2023-03-16T10:33:44;99136.59;;;4.87;60.19
56825;BME280;42705;50.326;18.772;2023-03-16T10:39:11;99133.30;;;4.93;60.15
56825;BME280;42705;50.326;18.772;2023-03-16T10:44:38;99133.52;;;4.83;59.25
56825;BME280;42705;50.326;18.772;2023-03-16T10:50:12;99130.84;;;4.94;58.93
56825;BME280;42705;50.326;18.772;2023-03-16T10:55:41;99122.79;;;5.01;58.68
56825;BME280;42705;50.326;18.772;2023-03-16T11:01:26;99126.60;;;5.04;58.19
56825;BME280;42705;50.326;18.772;2023-03-16T11:06:55;99118.23;;;5.17;57.40
56825;BME280;42705;50.326;18.772;2023-03-16T11:12:27;99123.58;;;5.09;56.97
56825;BME280;42705;50.326;18.772;2023-03-16T11:17:51;99124.61;;;5.00;56.91
56825;BME280;42705;50.326;18.772;2023-03-16T11:23:28;99119.83;;;5.29;56.36
56825;BME280;42705;50.326;18.772;2023-03-16T11:29:03;99116.51;;;5.47;56.06
56825;BME280;42705;50.326;18.772;2023-03-16T11:34:31;99116.14;;;5.35;55.29
56825;BME280;42705;50.326;18.772;2023-03-16T11:45:28;99112.56;;;5.23;55.16
56825;BME280;42705;50.326;18.772;2023-03-16T11:51:10;99100.36;;;5.62;55.12
56825;BME280;42705;50.326;18.772;2023-03-16T11:56:42;99096.41;;;6.14;54.71
56825;BME280;42705;50.326;18.772;2023-03-16T12:07:49;99097.74;;;6.20;53.06
56825;BME280;42705;50.326;18.772;2023-03-16T12:19:21;99092.64;;;7.16;52.23
56825;BME280;42705;50.326;18.772;2023-03-16T12:24:50;99092.53;;;8.00;51.40
56825;BME280;42705;50.326;18.772;2023-03-16T12:30:31;99094.09;;;8.27;49.68
56825;BME280;42705;50.326;18.772;2023-03-16T12:36:30;99084.88;;;9.27;49.07
56825;BME280;42705;50.326;18.772;2023-03-16T12:53:25;99061.61;;;15.51;40.96
56825;BME280;42705;50.326;18.772;2023-03-16T12:58:55;99058.89;;;18.88;38.66
56825;BME280;42705;50.326;18.772;2023-03-16T13:04:21;99055.52;;;21.15;36.96
56825;BME280;42705;50.326;18.772;2023-03-16T13:09:58;99055.61;;;23.14;34.14
56825;BME280;42705;50.326;18.772;2023-03-16T13:26:15;99060.32;;;21.88;29.90
56825;BME280;42705;50.326;18.772;2023-03-16T13:31:40;99057.88;;;22.49;28.66
56825;BME280;42705;50.326;18.772;2023-03-16T13:37:12;99062.71;;;23.33;27.87
56825;BME280;42705;50.326;18.772;2023-03-16T13:42:39;99064.77;;;20.11;28.89
56825;BME280;42705;50.326;18.772;2023-03-16T13:48:05;99061.51;;;17.64;29.79
56825;BME280;42705;50.326;18.772;2023-03-16T13:53:39;99060.11;;;15.61;30.44
56825;BME280;42705;50.326;18.772;2023-03-16T13:59:03;99063.80;;;14.14;31.11
56825;BME280;42705;50.326;18.772;2023-03-16T14:04:28;99065.30;;;12.66;31.68
56825;BME280;42705;50.326;18.772;2023-03-16T14:09:50;99066.20;;;13.75;30.81
56825;BME280;42705;50.326;18.772;2023-03-16T14:15:15;99066.40;;;12.89;31.70
56825;BME280;42705;50.326;18.772;2023-03-16T14:20:39;99066.88;;;11.92;32.59
56825;BME280;42705;50.326;18.772;2023-03-16T14:26:04;99069.95;;;11.10;33.25
56825;BME280;42705;50.326;18.772;2023-03-16T14:31:34;99062.81;;;11.50;33.15
56825;BME280;42705;50.326;18.772;2023-03-16T14:37:13;99053.70;;;14.83;31.64
56825;BME280;42705;50.326;18.772;2023-03-16T14:42:38;99044.86;;;18.03;29.95
56825;BME280;42705;50.326;18.772;2023-03-16T14:48:13;99043.56;;;20.72;28.48
56825;BME280;42705;50.326;18.772;2023-03-16T14:53:38;99039.66;;;22.83;27.13
56825;BME280;42705;50.326;18.772;2023-03-16T14:58:59;99044.73;;;22.99;26.36
56825;BME280;42705;50.326;18.772;2023-03-16T15:04:28;99053.46;;;22.24;25.72
56825;BME280;42705;50.326;18.772;2023-03-16T15:09:53;99057.22;;;20.96;25.55
56825;BME280;42705;50.326;18.772;2023-03-16T15:15:17;99051.98;;;22.06;25.07
56825;BME280;42705;50.326;18.772;2023-03-16T15:20:42;99050.81;;;22.99;24.49
56825;BME280;42705;50.326;18.772;2023-03-16T15:26:05;99048.67;;;21.90;24.22
56825;BME280;42705;50.326;18.772;2023-03-16T15:31:28;99053.83;;;20.95;24.34
56825;BME280;42705;50.326;18.772;2023-03-16T15:36:50;99051.11;;;21.15;24.23
56825;BME280;42705;50.326;18.772;2023-03-16T15:42:14;99052.44;;;20.77;24.01
56825;BME280;42705;50.326;18.772;2023-03-16T15:47:37;99056.66;;;18.40;24.32
56825;BME280;42705;50.326;18.772;2023-03-16T15:53:03;99062.48;;;16.23;25.06
56825;BME280;42705;50.326;18.772;2023-03-16T15:58:27;99072.98;;;14.39;25.81
56825;BME280;42705;50.326;18.772;2023-03-16T16:03:52;99073.46;;;13.68;26.24
56825;BME280;42705;50.326;18.772;2023-03-16T16:09:14;99075.21;;;13.64;26.71
56825;BME280;42705;50.326;18.772;2023-03-16T16:14:36;99078.27;;;13.40;26.86
56825;BME280;42705;50.326;18.772;2023-03-16T16:19:58;99086.90;;;12.95;27.36
56825;BME280;42705;50.326;18.772;2023-03-16T16:25:21;99087.59;;;12.56;27.68
56825;BME280;42705;50.326;18.772;2023-03-16T16:30:44;99090.56;;;12.06;28.17
56825;BME280;42705;50.326;18.772;2023-03-16T16:36:12;99097.94;;;11.37;28.26
56825;BME280;42705;50.326;18.772;2023-03-16T16:41:36;99095.41;;;10.63;28.95
56825;BME280;42705;50.326;18.772;2023-03-16T16:46:58;99104.79;;;9.83;29.50
56825;BME280;42705;50.326;18.772;2023-03-16T16:52:20;99103.65;;;9.06;29.89
56825;BME280;42705;50.326;18.772;2023-03-16T16:57:43;99106.55;;;8.43;30.47
56825;BME280;42705;50.326;18.772;2023-03-16T17:03:19;99106.12;;;7.90;31.45
56825;BME280;42705;50.326;18.772;2023-03-16T17:08:45;99112.17;;;7.41;31.75
56825;BME280;42705;50.326;18.772;2023-03-16T17:14:17;99117.08;;;6.93;32.14
56825;BME280;42705;50.326;18.772;2023-03-16T17:19:40;99128.69;;;6.47;32.81
56825;BME280;42705;50.326;18.772;2023-03-16T17:25:02;99128.67;;;6.11;33.29
56825;BME280;42705;50.326;18.772;2023-03-16T17:30:27;99130.03;;;5.74;33.82
56825;BME280;42705;50.326;18.772;2023-03-16T17:35:51;99134.35;;;5.44;34.37
56825;BME280;42705;50.326;18.772;2023-03-16T17:41:22;99128.73;;;5.22;34.76
56825;BME280;42705;50.326;18.772;2023-03-16T17:46:46;99129.59;;;5.07;35.22
56825;BME280;42705;50.326;18.772;2023-03-16T17:52:20;99137.44;;;4.93;35.57
56825;BME280;42705;50.326;18.772;2023-03-16T17:57:50;99142.02;;;4.79;36.02
56825;BME280;42705;50.326;18.772;2023-03-16T18:03:13;99148.87;;;4.59;36.32
56825;BME280;42705;50.326;18.772;2023-03-16T18:08:38;99146.49;;;4.42;36.70
56825;BME280;42705;50.326;18.772;2023-03-16T18:14:02;99141.86;;;4.28;36.90
56825;BME280;42705;50.326;18.772;2023-03-16T18:19:27;99144.23;;;4.16;37.46
56825;BME280;42705;50.326;18.772;2023-03-16T18:24:53;99143.70;;;4.10;37.88
56825;BME280;42705;50.326;18.772;2023-03-16T18:30:17;99146.30;;;4.03;37.88
56825;BME280;42705;50.326;18.772;2023-03-16T18:35:40;99154.45;;;3.93;38.15
56825;BME280;42705;50.326;18.772;2023-03-16T18:46:39;99163.11;;;3.69;38.40
56825;BME280;42705;50.326;18.772;2023-03-16T18:52:03;99168.77;;;3.63;38.58
56825;BME280;42705;50.326;18.772;2023-03-16T18:57:31;99169.54;;;3.58;38.92
56825;BME280;42705;50.326;18.772;2023-03-16T19:03:00;99173.16;;;3.54;38.97
56825;BME280;42705;50.326;18.772;2023-03-16T19:08:25;99167.39;;;3.53;39.36
56825;BME280;42705;50.326;18.772;2023-03-16T19:13:49;99171.15;;;3.53;39.68
56825;BME280;42705;50.326;18.772;2023-03-16T19:19:16;99176.45;;;3.54;39.71
56825;BME280;42705;50.326;18.772;2023-03-16T19:24:51;99186.05;;;3.42;39.91
56825;BME280;42705;50.326;18.772;2023-03-16T19:30:34;99192.55;;;2.82;41.14
56825;BME280;42705;50.326;18.772;2023-03-16T19:35:57;99193.19;;;2.53;41.63
56825;BME280;42705;50.326;18.772;2023-03-16T19:41:36;99196.45;;;2.46;41.92
56825;BME280;42705;50.326;18.772;2023-03-16T19:46:59;99200.18;;;2.48;42.68
56825;BME280;42705;50.326;18.772;2023-03-16T19:52:26;99201.27;;;2.50;42.83
56825;BME280;42705;50.326;18.772;2023-03-16T19:57:58;99202.11;;;2.54;42.86
56825;BME280;42705;50.326;18.772;2023-03-16T20:03:24;99203.17;;;2.57;42.92
56825;BME280;42705;50.326;18.772;2023-03-16T20:08:46;99206.31;;;2.60;43.20
56825;BME280;42705;50.326;18.772;2023-03-16T20:14:30;99205.77;;;2.57;43.17
56825;BME280;42705;50.326;18.772;2023-03-16T20:19:56;99206.10;;;2.50;43.70
56825;BME280;42705;50.326;18.772;2023-03-16T20:25:18;99203.05;;;2.41;44.09
56825;BME280;42705;50.326;18.772;2023-03-16T20:30:41;99200.73;;;2.31;44.38
56825;BME280;42705;50.326;18.772;2023-03-16T20:36:03;99202.86;;;2.22;44.35
56825;BME280;42705;50.326;18.772;2023-03-16T20:41:28;99201.16;;;2.14;44.70
56825;BME280;42705;50.326;18.772;2023-03-16T20:46:53;99201.05;;;2.04;44.84
56825;BME280;42705;50.326;18.772;2023-03-16T20:52:21;99207.42;;;1.97;45.21
56825;BME280;42705;50.326;18.772;2023-03-16T20:57:44;99211.62;;;1.87;45.26
56825;BME280;42705;50.326;18.772;2023-03-16T21:03:42;99212.00;;;1.79;45.55
56825;BME280;42705;50.326;18.772;2023-03-16T21:08:58;99207.97;;;1.72;45.83
56825;BME280;42705;50.326;18.772;2023-03-16T21:14:22;99204.86;;;1.68;45.86
56825;BME280;42705;50.326;18.772;2023-03-16T21:19:44;99205.31;;;1.65;46.06
56825;BME280;42705;50.326;18.772;2023-03-16T21:25:07;99206.83;;;1.62;46.16
56825;BME280;42705;50.326;18.772;2023-03-16T21:30:34;99213.94;;;1.56;46.34
56825;BME280;42705;50.326;18.772;2023-03-16T21:35:59;99214.63;;;1.52;46.35
56825;BME280;42705;50.326;18.772;2023-03-16T21:41:22;99218.02;;;1.49;46.40
56825;BME280;42705;50.326;18.772;2023-03-16T21:46:45;99220.93;;;1.46;46.55
56825;BME280;42705;50.326;18.772;2023-03-16T21:52:21;99214.33;;;1.43;46.48
56825;BME280;42705;50.326;18.772;2023-03-16T21:57:44;99210.53;;;1.39;46.56
56825;BME280;42705;50.326;18.772;2023-03-16T22:03:22;99204.00;;;1.35;46.59
56825;BME280;42705;50.326;18.772;2023-03-16T22:08:44;99200.86;;;1.31;47.02
56825;BME280;42705;50.326;18.772;2023-03-16T22:14:07;99198.23;;;1.28;47.04
56825;BME280;42705;50.326;18.772;2023-03-16T22:19:31;99197.97;;;1.26;47.04
56825;BME280;42705;50.326;18.772;2023-03-16T22:24:53;99200.34;;;1.23;47.06
56825;BME280;42705;50.326;18.772;2023-03-16T22:30:26;99199.02;;;1.17;47.71
56825;BME280;42705;50.326;18.772;2023-03-16T22:35:49;99193.36;;;1.08;48.03
56825;BME280;42705;50.326;18.772;2023-03-16T22:41:14;99186.84;;;1.03;48.21
56825;BME280;42705;50.326;18.772;2023-03-16T22:46:38;99174.56;;;1.00;48.10
56825;BME280;42705;50.326;18.772;2023-03-16T22:52:00;99169.84;;;0.98;48.53
56825;BME280;42705;50.326;18.772;2023-03-16T22:57:22;99164.20;;;0.93;48.42
56825;BME280;42705;50.326;18.772;2023-03-16T23:02:44;99156.31;;;0.88;48.72
56825;BME280;42705;50.326;18.772;2023-03-16T23:08:12;99158.04;;;0.88;48.92
56825;BME280;42705;50.326;18.772;2023-03-16T23:13:34;99167.08;;;0.89;49.27
56825;BME280;42705;50.326;18.772;2023-03-16T23:18:57;99163.89;;;0.88;48.95
56825;BME280;42705;50.326;18.772;2023-03-16T23:24:20;99171.59;;;0.84;49.45
56825;BME280;42705;50.326;18.772;2023-03-16T23:29:42;99173.86;;;0.79;49.38
56825;BME280;42705;50.326;18.772;2023-03-16T23:35:13;99183.00;;;0.78;49.37
56825;BME280;42705;50.326;18.772;2023-03-16T23:40:37;99187.00;;;0.77;49.54
56825;BME280;42705;50.326;18.772;2023-03-16T23:45:59;99187.33;;;0.73;49.56
56825;BME280;42705;50.326;18.772;2023-03-16T23:51:32;99188.94;;;0.67;50.00
56825;BME280;42705;50.326;18.772;2023-03-16T23:56:55;99184.27;;;0.63;49.90
